createdAt,value
2018-12-14T00:02:11.271Z,30.17
2018-12-14T00:04:43.035Z,28.83
2018-12-14T00:07:17.297Z,28.90
2018-12-14T00:09:48.465Z,33.13
2018-12-14T00:12:20.876Z,31.87
2018-12-14T00:14:52.875Z,29.10
2018-12-14T00:17:24.200Z,29.20
2018-12-14T00:19:58.241Z,29.17
2018-12-14T00:22:32.734Z,34.37
2018-12-14T00:25:04.644Z,31.60
2018-12-14T00:27:41.171Z,31.17
2018-12-14T00:30:12.046Z,30.13
2018-12-14T00:32:44.479Z,32.03
2018-12-14T00:35:18.753Z,32.23
2018-12-14T00:37:50.331Z,32.50
2018-12-14T00:40:21.840Z,28.50
2018-12-14T00:42:53.159Z,29.27
2018-12-14T00:45:27.467Z,30.43
2018-12-14T00:48:00.082Z,31.33
2018-12-14T00:50:32.015Z,27.97
2018-12-14T00:53:05.747Z,30.03
2018-12-14T00:55:37.021Z,28.33
2018-12-14T00:58:11.791Z,29.27
2018-12-14T01:00:45.631Z,29.37
2018-12-14T01:03:15.603Z,31.73
2018-12-14T01:05:50.533Z,29.50
2018-12-14T01:08:23.517Z,32.77
2018-12-14T01:10:56.749Z,30.80
2018-12-14T01:13:28.731Z,31.30
2018-12-14T01:16:02.857Z,31.00
2018-12-14T01:18:35.976Z,27.27
2018-12-14T01:21:07.430Z,30.90
2018-12-14T01:23:42.109Z,32.57
2018-12-14T01:26:16.091Z,30.77
2018-12-14T01:28:50.637Z,27.33
2018-12-14T01:31:24.796Z,31.97
2018-12-14T01:33:57.275Z,31.57
2018-12-14T01:36:28.159Z,29.30
2018-12-14T01:38:59.751Z,30.87
2018-12-14T01:41:31.169Z,29.10
2018-12-14T01:44:02.957Z,32.83
2018-12-14T01:46:34.647Z,29.57
2018-12-14T01:49:06.505Z,28.70
2018-12-14T01:51:38.056Z,30.83
2018-12-14T01:54:12.167Z,33.40
2018-12-14T01:56:43.102Z,28.63
2018-12-14T01:59:17.061Z,26.67
2018-12-14T02:01:48.305Z,27.20
2018-12-14T02:04:20.615Z,30.93
2018-12-14T02:06:53.957Z,31.03
2018-12-14T02:09:25.931Z,28.70
2018-12-14T02:11:57.583Z,30.60
2018-12-14T02:14:33.142Z,30.53
2018-12-14T02:17:06.370Z,28.73
2018-12-14T02:19:42.174Z,32.23
2018-12-14T02:22:13.893Z,30.17
2018-12-14T02:24:48.786Z,29.13
2018-12-14T02:27:19.852Z,29.07
2018-12-14T02:29:54.323Z,28.00
2018-12-14T02:32:25.869Z,29.43
2018-12-14T02:35:00.218Z,29.83
2018-12-14T02:37:31.036Z,28.53
2018-12-14T02:40:02.858Z,27.17
2018-12-14T02:42:34.458Z,28.70
2018-12-14T02:45:11.419Z,27.00
2018-12-14T02:47:41.122Z,29.97
2018-12-14T02:50:12.483Z,29.87
2018-12-14T02:52:43.819Z,30.20
2018-12-14T02:55:15.868Z,28.40
2018-12-14T02:57:46.989Z,28.63
2018-12-14T03:00:20.562Z,31.27
2018-12-14T03:02:54.184Z,27.47
2018-12-14T03:05:26.514Z,28.03
2018-12-14T03:07:58.145Z,29.87
2018-12-14T03:10:32.159Z,28.53
2018-12-14T03:13:03.125Z,26.60
2018-12-14T03:15:36.099Z,31.13
2018-12-14T03:18:07.327Z,35.40
2018-12-14T03:20:40.134Z,31.17
2018-12-14T03:23:13.655Z,32.63
2018-12-14T03:25:48.583Z,32.70
2018-12-14T03:28:19.561Z,30.40
2018-12-14T03:30:53.510Z,34.17
2018-12-14T03:33:24.425Z,33.67
2018-12-14T03:36:00.383Z,35.43
2018-12-14T03:38:31.508Z,36.33
2018-12-14T03:41:05.637Z,38.27
2018-12-14T03:43:36.617Z,35.27
2018-12-14T03:46:09.261Z,41.07
2018-12-14T03:48:40.556Z,39.43
2018-12-14T03:51:12.704Z,45.77
2018-12-14T03:53:43.712Z,41.73
2018-12-14T03:56:23.523Z,46.27
2018-12-14T03:58:54.500Z,46.63
2018-12-14T04:01:28.526Z,45.87
2018-12-14T04:03:59.532Z,49.00
2018-12-14T04:06:30.872Z,45.23
2018-12-14T04:09:02.636Z,46.57
2018-12-14T04:11:35.044Z,48.83
2018-12-14T04:14:06.675Z,42.63
2018-12-14T04:16:40.808Z,44.83
2018-12-14T04:19:12.034Z,43.73
2018-12-14T04:21:47.047Z,40.67
2018-12-14T04:24:16.346Z,41.13
2018-12-14T04:26:50.044Z,44.40
2018-12-14T04:29:21.496Z,38.03
2018-12-14T04:31:53.044Z,40.00
2018-12-14T04:34:26.914Z,44.23
2018-12-14T04:36:58.951Z,44.33
2018-12-14T04:39:32.759Z,43.33
2018-12-14T04:42:05.055Z,37.23
2018-12-14T04:44:36.397Z,39.87
2018-12-14T04:47:10.695Z,42.37
2018-12-14T04:49:41.745Z,38.60
2018-12-14T04:52:15.640Z,44.27
2018-12-14T04:54:51.044Z,40.63
2018-12-14T04:57:23.029Z,39.30
2018-12-14T04:59:52.628Z,39.23
2018-12-14T05:02:24.110Z,38.63
2018-12-14T05:04:55.531Z,39.97
2018-12-14T05:07:29.343Z,39.90
2018-12-14T05:10:00.496Z,38.57
2018-12-14T05:12:32.864Z,40.80
2018-12-14T05:15:04.232Z,40.60
2018-12-14T05:17:35.911Z,38.43
2018-12-14T05:20:07.471Z,39.73
2018-12-14T05:22:39.704Z,37.43
2018-12-14T05:25:13.242Z,37.90
2018-12-14T05:27:45.300Z,39.27
2018-12-14T05:30:19.381Z,37.47
2018-12-14T05:32:51.562Z,41.83
2018-12-14T05:35:23.117Z,37.97
2018-12-14T05:37:55.993Z,34.90
2018-12-14T05:40:27.524Z,34.67
2018-12-14T05:43:02.735Z,37.93
2018-12-14T05:45:35.247Z,35.63
2018-12-14T05:48:06.611Z,36.00
2018-12-14T05:50:40.589Z,37.03
2018-12-14T05:53:13.003Z,35.10
2018-12-14T05:55:44.239Z,34.07
2018-12-14T05:58:16.841Z,35.43
2018-12-14T06:00:47.707Z,35.30
2018-12-14T06:03:19.771Z,37.67
2018-12-14T06:05:51.756Z,35.33
2018-12-14T06:08:23.485Z,31.63
2018-12-14T06:10:57.300Z,36.50
2018-12-14T06:13:30.203Z,33.97
2018-12-14T06:16:02.865Z,32.50
2018-12-14T06:18:34.140Z,33.47
2018-12-14T06:21:05.709Z,38.97
2018-12-14T06:23:37.339Z,34.47
2018-12-14T06:26:13.002Z,33.97
2018-12-14T06:28:43.083Z,34.70
2018-12-14T06:31:17.065Z,34.13
2018-12-14T06:33:49.198Z,36.17
2018-12-14T06:36:24.193Z,37.17
2018-12-14T06:38:57.102Z,37.57
2018-12-14T06:41:28.679Z,35.33
2018-12-14T06:44:02.565Z,37.77
2018-12-14T06:46:33.590Z,38.13
2018-12-14T06:49:04.891Z,38.33
2018-12-14T06:51:37.546Z,39.67
2018-12-14T06:54:11.510Z,38.20
2018-12-14T06:56:42.731Z,39.93
2018-12-14T06:59:17.165Z,37.90
2018-12-14T07:01:50.895Z,38.63
2018-12-14T07:04:27.564Z,42.80
2018-12-14T07:07:04.156Z,39.37
2018-12-14T07:09:32.788Z,37.30
2018-12-14T07:12:04.347Z,42.30
2018-12-14T07:14:35.695Z,42.87
2018-12-14T07:17:07.064Z,43.27
2018-12-14T07:19:39.107Z,41.93
2018-12-14T07:22:10.537Z,44.47
2018-12-14T07:24:47.661Z,44.73
2018-12-14T07:27:19.474Z,42.47
2018-12-14T07:29:52.372Z,43.27
2018-12-14T07:32:23.430Z,41.00
2018-12-14T07:34:59.352Z,44.30
2018-12-14T07:37:30.484Z,49.30
2018-12-14T07:40:03.735Z,43.03
2018-12-14T07:42:35.265Z,43.93
2018-12-14T07:45:08.543Z,44.43
2018-12-14T07:47:40.391Z,43.13
2018-12-14T07:50:12.011Z,45.00
2018-12-14T07:52:43.525Z,45.93
2018-12-14T07:55:15.174Z,43.70
2018-12-14T07:57:48.805Z,44.33
2018-12-14T08:00:23.986Z,41.13
2018-12-14T08:02:55.257Z,44.97
2018-12-14T08:05:28.370Z,42.93
2018-12-14T08:07:59.709Z,39.70
2018-12-14T08:10:31.852Z,45.57
2018-12-14T08:13:03.461Z,42.73
2018-12-14T08:15:37.483Z,45.00
2018-12-14T08:18:09.196Z,45.07
2018-12-14T08:20:40.523Z,43.77
2018-12-14T08:23:12.142Z,42.43
2018-12-14T08:25:43.761Z,44.07
2018-12-14T08:28:14.772Z,45.23
2018-12-14T08:30:48.755Z,46.93
2018-12-14T08:33:26.453Z,43.60
2018-12-14T08:35:59.169Z,48.70
2018-12-14T08:38:30.687Z,45.60
2018-12-14T08:41:02.454Z,49.73
2018-12-14T08:43:33.711Z,46.57
2018-12-14T08:46:06.147Z,43.50
2018-12-14T08:48:37.383Z,45.83
2018-12-14T08:51:12.585Z,45.20
2018-12-14T08:53:44.141Z,46.10
2018-12-14T08:56:16.596Z,49.57
2018-12-14T08:58:48.397Z,46.43
2018-12-14T09:01:22.596Z,50.30
2018-12-14T09:03:53.905Z,51.97
2018-12-14T09:06:25.538Z,49.17
2018-12-14T09:08:59.353Z,51.43
2018-12-14T09:11:31.675Z,47.63
2018-12-14T09:14:03.196Z,45.47
2018-12-14T09:16:37.345Z,49.40
2018-12-14T09:19:08.335Z,49.20
2018-12-14T09:21:40.094Z,47.57
2018-12-14T09:24:09.489Z,48.20
2018-12-14T09:26:41.665Z,49.90
2018-12-14T09:29:11.722Z,47.77
2018-12-14T09:31:45.033Z,47.07
2018-12-14T09:34:23.613Z,49.03
2018-12-14T09:36:56.847Z,44.00
2018-12-14T09:39:28.513Z,47.67
2018-12-14T09:42:00.360Z,48.67
2018-12-14T09:44:34.106Z,47.67
2018-12-14T09:47:05.779Z,47.17
2018-12-14T09:49:37.535Z,45.23
2018-12-14T09:52:12.284Z,42.33
2018-12-14T09:54:44.732Z,44.33
2018-12-14T09:57:16.223Z,44.57
2018-12-14T09:59:50.161Z,46.23
2018-12-14T10:02:22.154Z,44.37
2018-12-14T10:04:53.690Z,43.17
2018-12-14T10:07:25.021Z,50.73
2018-12-14T10:09:56.488Z,44.73
2018-12-14T10:12:28.375Z,45.63
2018-12-14T10:15:01.688Z,38.63
2018-12-14T10:17:34.545Z,43.57
2018-12-14T10:20:07.587Z,47.50
2018-12-14T10:22:41.639Z,43.10
2018-12-14T10:25:15.653Z,42.57
2018-12-14T10:27:47.741Z,42.90
2018-12-14T10:30:19.364Z,46.27
2018-12-14T10:32:52.069Z,42.10
2018-12-14T10:35:23.291Z,39.60
2018-12-14T10:37:55.059Z,43.07
2018-12-14T10:40:26.388Z,43.40
2018-12-14T10:42:57.889Z,41.43
2018-12-14T10:45:31.765Z,37.87
2018-12-14T10:48:03.568Z,40.37
2018-12-14T10:50:39.671Z,36.13
2018-12-14T10:53:11.271Z,37.37
2018-12-14T10:55:42.341Z,35.17
2018-12-14T10:58:14.113Z,38.90
2018-12-14T11:00:51.214Z,34.23
2018-12-14T11:03:23.396Z,36.30
2018-12-14T11:05:55.021Z,32.73
2018-12-14T11:08:27.832Z,32.47
2018-12-14T11:10:59.479Z,35.67
2018-12-14T11:13:34.251Z,31.53
2018-12-14T11:16:07.742Z,37.87
2018-12-14T11:18:40.994Z,36.17
2018-12-14T11:21:14.888Z,32.97
2018-12-14T11:23:48.947Z,28.63
2018-12-14T11:26:20.684Z,31.93
2018-12-14T11:28:52.236Z,34.40
2018-12-14T11:31:26.819Z,27.83
2018-12-14T11:34:00.540Z,35.73
2018-12-14T11:36:31.709Z,32.90
2018-12-14T11:39:06.471Z,35.93
2018-12-14T11:41:38.100Z,32.10
2018-12-14T11:44:10.116Z,31.87
2018-12-14T11:46:41.597Z,35.87
2018-12-14T11:49:13.356Z,29.70
2018-12-14T11:51:44.650Z,32.53
2018-12-14T11:54:17.488Z,29.87
2018-12-14T11:56:48.882Z,31.83
2018-12-14T11:59:23.613Z,32.43
2018-12-14T12:01:54.483Z,30.30
2018-12-14T12:04:26.124Z,31.13
2018-12-14T12:07:00.205Z,39.37
2018-12-14T12:09:33.436Z,35.30
2018-12-14T12:12:07.134Z,29.37
2018-12-14T12:14:39.112Z,27.73
2018-12-14T12:17:12.978Z,28.43
2018-12-14T12:19:45.126Z,27.23
2018-12-14T12:22:16.550Z,28.03
2018-12-14T12:24:48.636Z,26.30
2018-12-14T12:27:20.117Z,28.63
2018-12-14T12:29:52.196Z,23.87
2018-12-14T12:32:23.208Z,28.40
2018-12-14T12:34:54.913Z,27.40
2018-12-14T12:37:26.300Z,27.90
2018-12-14T12:39:58.432Z,28.20
2018-12-14T12:42:30.040Z,26.00
2018-12-14T12:45:02.852Z,26.57
2018-12-14T12:47:36.187Z,26.50
2018-12-14T12:50:12.544Z,27.27
2018-12-14T12:52:43.591Z,25.57
2018-12-14T12:55:17.035Z,27.77
2018-12-14T12:57:48.019Z,25.40
2018-12-14T13:00:20.436Z,27.20
2018-12-14T13:02:52.303Z,29.20
2018-12-14T13:05:24.599Z,26.97
2018-12-14T13:07:55.571Z,28.87
2018-12-14T13:10:30.297Z,29.73
2018-12-14T13:13:03.863Z,27.33
2018-12-14T13:15:36.649Z,28.00
2018-12-14T13:18:07.744Z,28.80
2018-12-14T13:20:41.699Z,26.77
2018-12-14T13:23:12.881Z,28.10
2018-12-14T13:25:45.932Z,30.23
2018-12-14T13:28:17.295Z,32.17
2018-12-14T13:30:49.822Z,30.83
2018-12-14T13:33:21.749Z,29.90
2018-12-14T13:35:54.933Z,38.17
2018-12-14T13:38:26.258Z,33.93
2018-12-14T13:40:57.836Z,29.93
2018-12-14T13:43:29.467Z,33.27
2018-12-14T13:46:02.895Z,35.20
2018-12-14T13:48:34.822Z,30.30
2018-12-14T13:51:06.277Z,34.33
2018-12-14T13:53:40.264Z,31.87
2018-12-14T13:56:12.341Z,30.37
2018-12-14T13:58:44.089Z,38.80
2018-12-14T14:01:16.444Z,33.93
2018-12-14T14:03:48.170Z,33.43
2018-12-14T14:06:25.189Z,33.57
2018-12-14T14:11:37.277Z,30.63
2018-12-14T14:14:09.463Z,32.03
2018-12-14T14:16:41.644Z,34.60
2018-12-14T14:19:12.897Z,31.20
2018-12-14T14:21:49.232Z,34.10
2018-12-14T14:24:26.329Z,33.93
2018-12-14T14:26:59.563Z,39.20
2018-12-14T14:29:37.189Z,36.90
2018-12-14T14:52:19.345Z,38.03
2018-12-14T14:54:50.688Z,38.30
2018-12-14T14:57:23.930Z,37.53
2018-12-14T14:59:57.527Z,38.73
2018-12-14T15:02:29.783Z,43.50
2018-12-14T15:05:03.301Z,44.23
2018-12-14T15:07:35.822Z,40.30
2018-12-14T15:10:09.874Z,41.20
2018-12-14T15:12:42.930Z,41.17
2018-12-14T15:15:15.575Z,40.77
2018-12-14T15:17:50.322Z,43.30
2018-12-14T15:20:22.220Z,43.60
2018-12-14T15:22:54.659Z,50.27
2018-12-14T15:25:28.634Z,46.67
2018-12-14T15:28:03.098Z,45.33
2018-12-14T15:30:34.011Z,48.20
2018-12-14T15:33:07.671Z,44.13
2018-12-14T15:35:41.426Z,45.37
2018-12-14T15:38:18.637Z,43.93
2018-12-14T15:40:49.704Z,46.10
2018-12-14T15:43:23.341Z,48.50
2018-12-14T15:45:57.112Z,49.87
2018-12-14T15:48:35.970Z,52.20
2018-12-14T15:51:07.934Z,44.37
2018-12-14T15:56:11.981Z,46.67
2018-12-14T16:01:15.034Z,42.67
2018-12-14T16:03:48.610Z,41.40
2018-12-14T16:06:23.825Z,45.27
2018-12-14T16:08:57.225Z,45.10
2018-12-14T16:11:30.125Z,46.87
2018-12-14T16:14:03.521Z,44.03
2018-12-14T16:16:36.153Z,45.37
2018-12-14T16:19:09.802Z,46.07
2018-12-14T16:21:41.978Z,46.63
2018-12-14T16:24:14.185Z,49.93
2018-12-14T16:26:50.258Z,53.73
2018-12-14T16:29:24.474Z,50.97
2018-12-14T16:31:57.667Z,48.83
2018-12-14T16:34:29.229Z,46.97
2018-12-14T16:37:01.449Z,49.17
2018-12-14T16:39:32.377Z,54.40
2018-12-14T16:42:04.471Z,55.40
2018-12-14T16:44:37.365Z,47.50
2018-12-14T16:47:12.008Z,50.67
2018-12-14T16:49:43.587Z,51.13
2018-12-14T16:52:19.294Z,49.33
2018-12-14T16:54:50.912Z,48.97
2018-12-14T16:57:23.524Z,49.00
2018-12-14T16:59:55.140Z,49.80
2018-12-14T17:02:28.203Z,45.97
2018-12-14T17:05:02.858Z,48.37
2018-12-14T17:07:38.011Z,48.93
2018-12-14T17:10:09.313Z,55.90
2018-12-14T17:12:41.464Z,54.63
2018-12-14T17:15:12.818Z,60.00
2018-12-14T17:17:45.140Z,53.37
2018-12-14T17:20:14.902Z,51.90
2018-12-14T17:22:49.504Z,53.53
2018-12-14T17:25:21.123Z,50.47
2018-12-14T17:27:53.390Z,50.57
2018-12-14T17:30:26.680Z,53.50
2018-12-14T17:32:59.446Z,53.50
2018-12-14T17:35:32.816Z,54.40
2018-12-14T17:38:05.870Z,58.17
2018-12-14T17:40:37.433Z,59.00
2018-12-14T17:43:09.305Z,59.97
2018-12-14T17:45:43.106Z,58.53
2018-12-14T17:48:15.896Z,57.77
2018-12-14T17:50:54.098Z,51.20
2018-12-14T17:53:26.571Z,56.17
2018-12-14T17:55:59.347Z,51.83
2018-12-14T17:58:38.710Z,55.17
2018-12-14T18:04:07.614Z,54.20
2018-12-14T18:06:39.433Z,49.07
2018-12-14T18:09:14.202Z,51.20
2018-12-14T18:11:52.068Z,45.70
2018-12-14T18:14:24.690Z,48.97
2018-12-14T18:16:55.813Z,49.77
2018-12-14T18:19:34.875Z,50.30
2018-12-14T18:22:08.537Z,48.27
2018-12-14T18:24:45.552Z,50.23
2018-12-14T18:27:20.015Z,48.87
2018-12-14T18:29:53.522Z,53.70
2018-12-14T18:32:31.752Z,50.03
2018-12-14T18:35:07.542Z,45.33
2018-12-14T18:37:39.995Z,49.03
2018-12-14T18:40:14.237Z,50.47
2018-12-14T18:42:48.482Z,46.93
2018-12-14T18:45:31.184Z,49.40
2018-12-14T18:48:02.900Z,52.00
2018-12-14T18:50:39.724Z,50.13
2018-12-14T18:53:19.698Z,52.90
2018-12-14T18:55:55.410Z,49.50
2018-12-14T18:58:27.246Z,48.30
2018-12-14T19:01:08.526Z,52.37
2018-12-14T19:03:42.303Z,53.13
2018-12-14T19:06:14.753Z,50.07
2018-12-14T19:08:48.114Z,54.60
2018-12-14T19:11:27.344Z,53.40
2018-12-14T19:14:07.234Z,45.53
2018-12-14T19:16:39.352Z,48.83
2018-12-14T19:19:10.687Z,49.97
2018-12-14T19:21:48.916Z,50.43
2018-12-14T19:24:22.903Z,49.10
2018-12-14T19:27:02.352Z,49.87
2018-12-14T19:29:35.581Z,52.50
2018-12-14T19:32:11.170Z,48.53
2018-12-14T19:34:48.552Z,51.87
2018-12-14T19:37:21.212Z,48.40
2018-12-14T19:39:58.598Z,50.93
2018-12-14T19:42:32.296Z,48.83
2018-12-14T19:45:07.914Z,52.63
2018-12-14T19:47:41.719Z,47.40
2018-12-14T19:50:16.303Z,47.57
2018-12-14T19:52:53.616Z,46.37
2018-12-14T19:55:28.094Z,44.73
2018-12-14T19:58:08.103Z,49.10
2018-12-14T20:00:48.416Z,50.23
2018-12-14T20:03:19.495Z,47.57
2018-12-14T20:05:53.644Z,45.03
2018-12-14T20:08:27.898Z,47.60
2018-12-14T20:11:00.067Z,47.23
2018-12-14T20:13:33.793Z,43.60
2018-12-14T20:16:12.765Z,47.67
2018-12-14T20:18:39.087Z,51.13
2018-12-14T20:21:16.640Z,47.73
2018-12-14T20:23:48.327Z,48.60
2018-12-14T20:26:23.934Z,52.87
2018-12-14T20:28:55.802Z,47.23
2018-12-14T20:31:29.338Z,51.47
2018-12-14T20:34:00.868Z,49.03
2018-12-14T20:36:33.250Z,50.60
2018-12-14T20:39:06.536Z,48.43
2018-12-14T20:41:43.377Z,54.13
2018-12-14T20:44:19.364Z,46.03
2018-12-14T20:46:51.031Z,46.83
2018-12-14T20:49:22.922Z,50.23
2018-12-14T20:51:55.302Z,41.27
2018-12-14T20:54:31.418Z,47.90
2018-12-14T20:57:05.702Z,52.27
2018-12-14T20:59:39.546Z,42.13
2018-12-14T21:02:11.645Z,50.53
2018-12-14T21:04:46.808Z,47.57
2018-12-14T21:07:20.961Z,46.77
2018-12-14T21:09:52.417Z,48.27
2018-12-14T21:12:24.997Z,45.17
2018-12-14T21:15:03.323Z,46.67
2018-12-14T21:17:41.491Z,45.03
2018-12-14T21:20:19.453Z,44.93
2018-12-14T21:22:53.377Z,44.67
2018-12-14T21:25:25.975Z,47.97
2018-12-14T21:27:58.220Z,47.67
2018-12-14T21:30:31.716Z,46.67
2018-12-14T21:33:09.875Z,46.13
2018-12-14T21:35:41.897Z,47.57
2018-12-14T21:53:14.631Z,38.03
2018-12-14T21:55:46.389Z,43.53
2018-12-14T21:58:18.723Z,38.87
2018-12-14T22:00:54.915Z,38.43
2018-12-14T22:03:26.891Z,41.10
2018-12-14T22:06:00.527Z,38.03
2018-12-14T22:08:32.280Z,34.13
2018-12-14T22:11:05.955Z,38.50
2018-12-14T22:13:44.854Z,39.57
2018-12-14T22:16:22.677Z,41.33
2018-12-14T22:18:55.366Z,34.83
2018-12-14T22:21:27.059Z,39.83
2018-12-14T22:24:07.111Z,39.80
2018-12-14T22:26:43.175Z,36.97
2018-12-14T22:29:20.283Z,37.50
2018-12-14T22:31:54.134Z,38.50
2018-12-14T22:34:26.869Z,39.70
2018-12-14T22:37:01.093Z,37.53
2018-12-14T22:39:33.955Z,38.27
2018-12-14T22:42:05.651Z,39.17
2018-12-14T22:44:44.243Z,38.27
2018-12-14T22:47:15.857Z,37.50
2018-12-14T22:49:48.702Z,35.60
2018-12-14T22:52:20.579Z,37.83
2018-12-14T22:54:54.041Z,32.53
2018-12-14T22:57:25.759Z,31.47
2018-12-14T23:00:00.053Z,33.43
2018-12-14T23:02:30.923Z,33.77
2018-12-14T23:05:10.705Z,34.03
2018-12-14T23:07:44.456Z,33.60
2018-12-14T23:10:17.091Z,32.00
2018-12-14T23:12:48.169Z,32.83
2018-12-14T23:15:19.993Z,32.43
2018-12-14T23:17:51.005Z,32.40
2018-12-14T23:20:23.411Z,32.27
2018-12-14T23:22:54.811Z,31.57
2018-12-14T23:25:29.031Z,29.30
2018-12-14T23:28:02.781Z,35.63
2018-12-14T23:30:39.843Z,30.57
2018-12-14T23:33:13.181Z,29.93
2018-12-14T23:35:46.696Z,27.33
2018-12-14T23:38:22.208Z,30.70
2018-12-14T23:40:56.748Z,31.23
2018-12-14T23:43:28.857Z,26.80
2018-12-14T23:46:03.203Z,30.53
2018-12-14T23:48:39.306Z,30.30
2018-12-14T23:51:11.294Z,30.13
2018-12-14T23:53:42.824Z,29.20
2018-12-14T23:56:18.210Z,29.63
2018-12-14T23:58:49.830Z,28.97
